createdAt,value
2023-05-09T05:03:06.382Z,507.00
2023-05-09T05:04:07.266Z,507.00
2023-05-09T05:05:12.060Z,506.00
2023-05-09T05:06:07.257Z,505.00
2023-05-09T05:07:06.245Z,505.00
2023-05-09T05:08:07.236Z,504.00
2023-05-09T05:09:07.277Z,502.00
2023-05-09T05:10:07.216Z,502.00
2023-05-09T05:11:06.196Z,502.00
2023-05-09T05:12:08.910Z,502.00
2023-05-09T05:13:07.311Z,503.00
2023-05-09T05:14:07.181Z,503.00
2023-05-09T05:15:06.179Z,501.00
2023-05-09T05:16:07.187Z,501.00
2023-05-09T05:17:06.170Z,500.00
2023-05-09T05:18:07.223Z,500.00
2023-05-09T05:19:06.312Z,501.00
2023-05-09T05:20:06.140Z,503.00
2023-05-09T05:21:07.141Z,503.00
2023-05-09T05:22:06.127Z,502.00
2023-05-09T05:23:06.119Z,501.00
2023-05-09T05:24:07.103Z,499.00
2023-05-09T05:25:07.121Z,500.00
2023-05-09T05:26:06.099Z,502.00
2023-05-09T05:27:07.098Z,502.00
2023-05-09T05:28:07.095Z,500.00
2023-05-09T05:29:06.115Z,499.00
2023-05-09T05:30:06.178Z,502.00
2023-05-09T05:31:07.121Z,506.00
2023-05-09T05:32:07.070Z,508.00
2023-05-09T05:33:06.170Z,507.00
2023-05-09T05:34:06.066Z,505.00
2023-05-09T05:35:06.169Z,504.00
2023-05-09T05:36:07.030Z,503.00
2023-05-09T05:37:07.034Z,503.00
2023-05-09T05:38:06.087Z,504.00
2023-05-09T05:39:06.041Z,504.00
2023-05-09T05:40:07.001Z,507.00
2023-05-09T05:41:06.989Z,508.00
2023-05-09T05:42:07.082Z,505.00
2023-05-09T05:43:06.983Z,505.00
2023-05-09T05:44:06.956Z,507.00
2023-05-09T05:45:05.975Z,507.00
2023-05-09T05:46:05.993Z,512.00
2023-05-09T05:47:06.943Z,518.00
2023-05-09T05:48:05.967Z,530.00
2023-05-09T05:49:05.930Z,541.00
2023-05-09T05:50:06.926Z,565.00
2023-05-09T05:51:07.042Z,586.00
2023-05-09T05:52:06.900Z,585.00
2023-05-09T05:53:06.894Z,584.00
2023-05-09T05:54:06.881Z,583.00
2023-05-09T05:55:06.960Z,583.00
2023-05-09T05:56:06.897Z,582.00
2023-05-09T05:57:06.878Z,582.00
2023-05-09T05:58:06.917Z,580.00
2023-05-09T05:59:06.931Z,580.00
2023-05-09T06:00:05.907Z,578.00
2023-05-09T06:01:05.911Z,579.00
2023-05-09T06:02:06.010Z,576.00
2023-05-09T06:03:06.024Z,577.00
2023-05-09T06:04:07.021Z,578.00
2023-05-09T06:05:06.965Z,583.00
2023-05-09T06:06:05.996Z,584.00
2023-05-09T06:07:06.128Z,583.00
2023-05-09T06:08:06.014Z,581.00
2023-05-09T06:09:07.087Z,580.00
2023-05-09T06:10:07.080Z,580.00
2023-05-09T06:11:07.041Z,581.00
2023-05-09T06:12:07.091Z,585.00
2023-05-09T06:13:07.192Z,582.00
2023-05-09T06:14:07.069Z,577.00
2023-05-09T06:15:06.112Z,575.00
2023-05-09T06:16:18.666Z,579.00
2023-05-09T06:17:07.230Z,580.00
2023-05-09T06:18:07.191Z,581.00
2023-05-09T06:19:07.160Z,579.00
2023-05-09T06:20:07.135Z,584.00
2023-05-09T06:21:06.095Z,584.00
2023-05-09T06:22:07.156Z,585.00
2023-05-09T06:23:07.184Z,583.00
2023-05-09T06:24:14.241Z,588.00
2023-05-09T06:25:09.559Z,587.00
2023-05-09T06:26:07.032Z,588.00
2023-05-09T06:27:07.028Z,588.00
2023-05-09T06:28:06.021Z,585.00
2023-05-09T06:29:06.016Z,587.00
2023-05-09T06:30:23.669Z,596.00
2023-05-09T06:31:07.033Z,603.00
2023-05-09T06:32:06.006Z,603.00
2023-05-09T06:33:06.030Z,605.00
2023-05-09T06:34:06.972Z,605.00
2023-05-09T06:35:05.970Z,608.00
2023-05-09T06:36:06.957Z,614.00
2023-05-09T06:37:06.956Z,620.00
2023-05-09T06:38:06.959Z,625.00
2023-05-09T06:39:07.055Z,626.00
2023-05-09T06:40:06.930Z,628.00
2023-05-09T06:41:06.920Z,633.00
2023-05-09T06:42:05.918Z,637.00
2023-05-09T06:43:05.905Z,644.00
2023-05-09T06:44:05.899Z,644.00
2023-05-09T06:45:06.947Z,651.00
2023-05-09T06:46:05.943Z,655.00
2023-05-09T06:47:05.863Z,662.00
2023-05-09T06:48:06.897Z,667.00
2023-05-09T06:49:06.852Z,665.00
2023-05-09T06:50:05.852Z,668.00
2023-05-09T06:51:05.847Z,668.00
2023-05-09T06:52:05.850Z,671.00
2023-05-09T06:53:05.834Z,673.00
2023-05-09T06:54:05.846Z,675.00
2023-05-09T06:55:05.939Z,673.00
2023-05-09T06:56:06.807Z,673.00
2023-05-09T06:57:05.796Z,673.00
2023-05-09T06:58:06.796Z,672.00
2023-05-09T06:59:05.781Z,674.00
2023-05-09T07:00:06.842Z,676.00
2023-05-09T07:01:06.764Z,677.00
2023-05-09T07:02:06.822Z,676.00
2023-05-09T07:03:05.805Z,678.00
2023-05-09T07:04:06.759Z,679.00
2023-05-09T07:05:06.817Z,679.00
2023-05-09T07:06:06.753Z,680.00
2023-05-09T07:07:05.738Z,680.00
2023-05-09T07:08:05.734Z,681.00
2023-05-09T07:09:06.728Z,689.00
2023-05-09T07:11:05.845Z,696.00
2023-05-09T07:12:05.708Z,697.00
2023-05-09T07:13:06.702Z,704.00
2023-05-09T07:14:05.696Z,704.00
2023-05-09T07:15:06.698Z,709.00
2023-05-09T07:16:06.837Z,710.00
2023-05-09T07:17:21.701Z,710.00
2023-05-09T07:18:06.709Z,716.00
2023-05-09T07:19:06.783Z,718.00
2023-05-09T07:20:06.651Z,719.00
2023-05-09T07:21:05.628Z,720.00
2023-05-09T07:22:05.688Z,720.00
2023-05-09T07:23:06.644Z,724.00
2023-05-09T07:24:06.624Z,729.00
2023-05-09T07:25:05.646Z,731.00
2023-05-09T07:26:05.604Z,732.00
2023-05-09T07:27:06.768Z,733.00
2023-05-09T07:28:06.679Z,735.00
2023-05-09T07:29:06.585Z,736.00
2023-05-09T07:30:05.613Z,736.00
2023-05-09T07:31:05.588Z,739.00
2023-05-09T07:32:06.655Z,741.00
2023-05-09T07:33:06.698Z,750.00
2023-05-09T07:34:06.540Z,757.00
2023-05-09T07:35:06.545Z,760.00
2023-05-09T07:36:05.609Z,763.00
2023-05-09T07:37:06.550Z,765.00
2023-05-09T07:38:06.520Z,765.00
2023-05-09T07:39:06.514Z,768.00
2023-05-09T07:40:05.512Z,766.00
2023-05-09T07:41:06.497Z,766.00
2023-05-09T07:42:06.483Z,773.00
2023-05-09T07:43:05.620Z,782.00
2023-05-09T07:44:06.466Z,788.00
2023-05-09T07:45:06.494Z,796.00
2023-05-09T07:46:05.522Z,802.00
2023-05-09T07:47:06.458Z,812.00
2023-05-09T07:48:06.498Z,847.00
2023-05-09T07:49:05.439Z,845.00
2023-05-09T07:50:05.873Z,866.00
2023-05-09T07:51:06.424Z,848.00
2023-05-09T07:52:05.416Z,908.00
2023-05-09T07:53:06.403Z,1007.00
2023-05-09T07:54:06.437Z,1006.00
2023-05-09T07:55:05.501Z,1014.00
2023-05-09T07:56:06.532Z,1040.00
2023-05-09T07:57:05.581Z,1101.00
2023-05-09T07:58:05.650Z,1147.00
2023-05-09T07:59:05.879Z,1171.00
2023-05-09T08:00:05.785Z,1217.00
2023-05-09T08:01:05.825Z,1238.00
2023-05-09T08:02:07.125Z,1257.00
2023-05-09T08:03:07.063Z,1261.00
2023-05-09T08:04:07.083Z,1271.00
2023-05-09T08:05:07.069Z,1283.00
2023-05-09T08:06:07.139Z,1299.00
2023-05-09T08:07:07.182Z,1337.00
2023-05-09T08:08:06.224Z,1352.00
2023-05-09T08:09:07.275Z,1368.00
2023-05-09T08:10:06.345Z,1379.00
2023-05-09T08:11:07.395Z,1389.00
2023-05-09T08:12:06.442Z,1396.00
2023-05-09T08:13:06.491Z,1406.00
2023-05-09T08:14:07.513Z,1423.00
2023-05-09T08:15:06.776Z,1441.00
2023-05-09T08:16:07.714Z,1448.00
2023-05-09T08:17:06.657Z,1448.00
2023-05-09T08:18:06.722Z,1446.00
2023-05-09T08:19:06.727Z,1454.00
2023-05-09T08:20:06.781Z,1465.00
2023-05-09T08:21:07.808Z,1467.00
2023-05-09T08:22:07.864Z,1469.00
2023-05-09T08:23:07.898Z,1465.00
2023-05-09T08:24:06.977Z,1461.00
2023-05-09T08:25:07.005Z,1454.00
2023-05-09T08:26:08.031Z,1458.00
2023-05-09T08:27:07.073Z,1467.00
2023-05-09T08:28:07.087Z,1464.00
2023-05-09T08:29:07.128Z,1464.00
2023-05-09T08:30:07.206Z,1465.00
2023-05-09T08:31:07.379Z,1470.00
2023-05-09T08:32:07.267Z,1472.00
2023-05-09T08:33:07.369Z,1467.00
2023-05-09T08:34:08.419Z,1458.00
2023-05-09T08:35:08.427Z,1452.00
2023-05-09T08:36:08.505Z,1457.00
2023-05-09T08:37:07.494Z,1462.00
2023-05-09T08:38:07.541Z,1471.00
2023-05-09T08:39:07.578Z,1482.00
2023-05-09T08:40:08.660Z,1494.00
2023-05-09T08:41:07.676Z,1500.00
2023-05-09T08:42:08.718Z,1514.00
2023-05-09T08:43:07.749Z,1528.00
2023-05-09T08:44:07.795Z,1537.00
2023-05-09T08:45:08.935Z,1535.00
2023-05-09T08:46:08.916Z,1534.00
2023-05-09T08:47:09.057Z,1539.00
2023-05-09T08:48:08.071Z,1550.00
2023-05-09T08:49:09.015Z,1566.00
2023-05-09T08:50:08.029Z,1578.00
2023-05-09T08:51:09.089Z,1592.00
2023-05-09T08:52:09.127Z,1610.00
2023-05-09T08:53:09.188Z,1622.00
2023-05-09T08:54:08.238Z,1645.00
2023-05-09T08:55:09.422Z,1681.00
2023-05-09T08:56:09.313Z,1697.00
2023-05-09T08:57:08.351Z,1713.00
2023-05-09T08:58:08.425Z,1591.00
2023-05-09T08:59:09.490Z,1612.00
2023-05-09T09:00:08.564Z,1636.00
2023-05-09T09:01:09.588Z,1657.00
2023-05-09T09:02:09.754Z,1642.00
2023-05-09T09:03:09.884Z,1582.00
2023-05-09T09:04:09.816Z,1598.00
2023-05-09T09:05:19.641Z,1622.00
2023-05-09T09:06:09.807Z,1634.00
2023-05-09T09:07:09.876Z,1623.00
2023-05-09T09:08:09.793Z,1606.00
2023-05-09T09:09:09.812Z,1585.00
2023-05-09T09:10:09.763Z,1591.00
2023-05-09T09:11:08.799Z,1600.00
2023-05-09T09:12:09.767Z,1644.00
2023-05-09T09:13:09.786Z,1679.00
2023-05-09T09:14:09.764Z,1668.00
2023-05-09T09:15:09.738Z,1623.00
2023-05-09T09:16:08.821Z,1572.00
2023-05-09T09:17:09.730Z,1583.00
2023-05-09T09:18:09.759Z,1608.00
2023-05-09T09:19:09.839Z,1617.00
2023-05-09T09:20:09.758Z,1609.00
2023-05-09T09:21:09.714Z,1615.00
2023-05-09T09:22:08.703Z,1611.00
2023-05-09T09:23:09.684Z,1614.00
2023-05-09T09:24:09.686Z,1619.00
2023-05-09T09:25:09.668Z,1562.00
2023-05-09T09:26:09.677Z,1533.00
2023-05-09T09:27:09.672Z,1573.00
2023-05-09T09:28:09.642Z,1600.00
2023-05-09T09:29:08.660Z,1511.00
2023-05-09T09:30:09.648Z,1538.00
2023-05-09T09:31:08.693Z,1559.00
2023-05-09T09:32:08.858Z,1535.00
2023-05-09T09:33:08.964Z,1475.00
2023-05-09T09:34:09.843Z,1397.00
2023-05-09T09:35:08.936Z,1425.00
2023-05-09T09:36:09.005Z,1172.00
2023-05-09T09:37:10.004Z,1371.00
2023-05-09T09:38:10.007Z,1293.00
2023-05-09T09:39:09.095Z,1302.00
2023-05-09T09:40:10.012Z,1417.00
2023-05-09T09:41:10.035Z,1419.00
2023-05-09T09:42:10.077Z,1474.00
2023-05-09T09:43:10.141Z,1415.00
2023-05-09T09:44:09.193Z,1448.00
2023-05-09T09:45:10.244Z,1183.00
2023-05-09T09:46:10.298Z,1086.00
2023-05-09T09:47:10.251Z,908.00
2023-05-09T09:48:10.380Z,1223.00
2023-05-09T09:49:10.299Z,1271.00
2023-05-09T09:50:09.328Z,1026.00
2023-05-09T09:51:10.558Z,937.00
2023-05-09T09:52:10.390Z,1102.00
2023-05-09T09:53:09.414Z,1163.00
2023-05-09T09:54:10.429Z,1285.00
2023-05-09T09:55:09.524Z,1293.00
2023-05-09T09:56:10.434Z,1357.00
2023-05-09T09:57:10.440Z,1470.00
2023-05-09T09:58:10.459Z,1475.00
2023-05-09T09:59:10.493Z,1510.00
2023-05-09T10:00:10.534Z,1522.00
2023-05-09T10:01:10.576Z,1554.00
2023-05-09T10:02:09.601Z,1562.00
2023-05-09T10:03:10.703Z,1550.00
2023-05-09T10:04:10.824Z,1422.00
2023-05-09T10:05:09.779Z,1470.00
2023-05-09T10:06:10.785Z,1373.00
2023-05-09T10:07:12.897Z,1299.00
2023-05-09T10:08:09.787Z,1393.00
2023-05-09T10:09:10.755Z,1396.00
2023-05-09T10:10:10.752Z,1385.00
2023-05-09T10:11:10.745Z,1413.00
2023-05-09T10:12:10.768Z,1405.00
2023-05-09T10:13:09.741Z,1388.00
2023-05-09T10:14:09.738Z,1381.00
2023-05-09T10:15:10.746Z,1384.00
2023-05-09T10:16:10.850Z,1390.00
2023-05-09T10:17:10.773Z,1386.00
2023-05-09T10:18:10.820Z,1351.00
2023-05-09T10:19:10.779Z,1395.00
2023-05-09T10:20:10.834Z,1215.00
2023-05-09T10:21:10.829Z,1086.00
2023-05-09T10:22:09.840Z,1178.00
2023-05-09T10:23:09.986Z,1364.00
2023-05-09T10:24:09.870Z,1343.00
2023-05-09T10:25:09.908Z,1286.00
2023-05-09T10:26:10.915Z,1236.00
2023-05-09T10:27:09.919Z,1250.00
2023-05-09T10:28:10.945Z,1342.00
2023-05-09T10:29:09.981Z,1338.00
2023-05-09T10:30:11.017Z,1328.00
2023-05-09T10:31:11.102Z,1329.00
2023-05-09T10:32:11.121Z,1320.00
2023-05-09T10:33:10.209Z,1299.00
2023-05-09T10:34:10.197Z,1166.00
2023-05-09T10:35:11.204Z,1198.00
2023-05-09T10:36:10.352Z,1236.00
2023-05-09T10:37:11.177Z,1185.00
2023-05-09T10:38:10.190Z,1196.00
2023-05-09T10:39:11.346Z,1290.00
2023-05-09T10:40:11.190Z,1292.00
2023-05-09T10:41:11.238Z,1220.00
2023-05-09T10:42:10.242Z,1302.00
2023-05-09T10:43:10.284Z,1230.00
2023-05-09T10:44:10.303Z,1193.00
2023-05-09T10:45:10.360Z,1250.00
2023-05-09T10:46:10.511Z,1292.00
2023-05-09T10:47:12.312Z,1300.00
2023-05-09T10:48:11.541Z,1291.00
2023-05-09T10:49:11.597Z,1297.00
2023-05-09T10:50:11.649Z,1300.00
2023-05-09T10:51:10.720Z,1308.00
2023-05-09T10:52:10.746Z,1315.00
2023-05-09T10:53:11.827Z,1329.00
2023-05-09T10:54:10.850Z,1317.00
2023-05-09T10:55:11.012Z,1329.00
2023-05-09T10:56:11.946Z,1352.00
2023-05-09T10:57:11.973Z,1378.00
2023-05-09T10:58:12.007Z,1387.00
2023-05-09T10:59:12.061Z,1320.00
2023-05-09T11:00:11.081Z,1343.00
2023-05-09T11:01:12.150Z,1353.00
2023-05-09T11:02:11.119Z,1216.00
2023-05-09T11:03:11.257Z,1320.00
2023-05-09T11:04:12.204Z,1344.00
2023-05-09T11:05:12.345Z,1352.00
2023-05-09T11:06:11.418Z,1362.00
2023-05-09T11:07:11.290Z,1373.00
2023-05-09T11:08:11.319Z,1378.00
2023-05-09T11:09:11.355Z,1392.00
2023-05-09T11:10:12.362Z,1390.00
2023-05-09T11:11:12.400Z,1397.00
2023-05-09T11:12:12.399Z,1396.00
2023-05-09T11:13:12.479Z,1403.00
2023-05-09T11:14:12.398Z,1409.00
2023-05-09T11:15:12.542Z,1410.00
2023-05-09T11:16:11.469Z,1337.00
2023-05-09T11:17:12.449Z,1380.00
2023-05-09T11:18:12.497Z,1391.00
2023-05-09T11:19:12.481Z,1394.00
2023-05-09T11:20:11.494Z,1135.00
2023-05-09T11:21:11.509Z,1235.00
2023-05-09T11:22:12.558Z,1227.00
2023-05-09T11:23:12.601Z,1235.00
2023-05-09T11:24:11.625Z,1208.00
2023-05-09T11:25:11.659Z,1254.00
2023-05-09T11:26:11.679Z,1265.00
2023-05-09T11:27:12.742Z,1264.00
2023-05-09T11:28:12.753Z,1271.00
2023-05-09T11:29:11.777Z,1286.00
2023-05-09T11:30:12.814Z,1336.00
2023-05-09T11:31:12.859Z,1331.00
2023-05-09T11:32:12.971Z,975.00
2023-05-09T11:33:12.942Z,921.00
2023-05-09T11:34:12.940Z,905.00
2023-05-09T11:35:12.159Z,854.00
2023-05-09T11:36:13.471Z,756.00
2023-05-09T11:37:13.046Z,750.00
2023-05-09T11:38:12.072Z,854.00
2023-05-09T11:39:13.075Z,990.00
2023-05-09T11:40:13.101Z,898.00
2023-05-09T11:41:13.454Z,874.00
2023-05-09T11:42:13.967Z,928.00
2023-05-09T11:43:12.225Z,1159.00
2023-05-09T11:44:13.114Z,840.00
2023-05-09T11:45:13.525Z,822.00
2023-05-09T11:46:12.233Z,780.00
2023-05-09T11:47:12.185Z,784.00
2023-05-09T11:48:12.192Z,761.00
2023-05-09T11:49:15.196Z,816.00
2023-05-09T11:50:13.195Z,720.00
2023-05-09T11:51:13.189Z,763.00
2023-05-09T11:52:13.177Z,686.00
2023-05-09T11:53:12.190Z,682.00
2023-05-09T11:54:12.160Z,681.00
2023-05-09T11:55:13.189Z,674.00
2023-05-09T11:56:12.160Z,733.00
2023-05-09T11:57:12.165Z,773.00
2023-05-09T11:58:13.122Z,781.00
2023-05-09T11:59:13.256Z,739.00
2023-05-09T12:00:13.104Z,798.00
2023-05-09T12:01:13.124Z,740.00
2023-05-09T12:02:12.289Z,634.00
2023-05-09T12:03:13.190Z,580.00
2023-05-09T12:04:12.101Z,583.00
2023-05-09T12:05:13.514Z,584.00
2023-05-09T12:06:13.101Z,586.00
2023-05-09T12:07:13.072Z,567.00
2023-05-09T12:08:12.060Z,545.00
2023-05-09T12:09:12.070Z,548.00
2023-05-09T12:10:12.051Z,559.00
2023-05-09T12:11:13.029Z,550.00
2023-05-09T12:12:12.032Z,533.00
2023-05-09T12:13:13.204Z,541.00
2023-05-09T12:14:12.019Z,538.00
2023-05-09T12:15:13.205Z,545.00
2023-05-09T12:16:13.074Z,554.00
2023-05-09T12:17:13.000Z,527.00
2023-05-09T12:18:11.991Z,511.00
2023-05-09T12:19:12.973Z,515.00
2023-05-09T12:20:12.985Z,526.00
2023-05-09T12:21:11.945Z,531.00
2023-05-09T12:22:12.948Z,520.00
2023-05-09T12:23:11.925Z,497.00
2023-05-09T12:24:11.928Z,497.00
2023-05-09T12:25:12.097Z,503.00
2023-05-09T12:26:12.903Z,509.00
2023-05-09T12:27:12.918Z,508.00
2023-05-09T12:28:12.902Z,511.00
2023-05-09T12:29:12.885Z,512.00
2023-05-09T12:30:12.870Z,509.00
2023-05-09T12:31:12.030Z,505.00
2023-05-09T12:32:12.873Z,491.00
2023-05-09T12:33:11.866Z,482.00
2023-05-09T12:34:12.854Z,483.00
2023-05-09T12:35:13.130Z,486.00
2023-05-09T12:36:12.867Z,506.00
2023-05-09T12:37:12.866Z,487.00
2023-05-09T12:38:11.875Z,489.00
2023-05-09T12:39:12.885Z,486.00
2023-05-09T12:40:13.081Z,479.00
2023-05-09T12:41:29.622Z,473.00
2023-05-09T12:42:12.937Z,478.00
2023-05-09T12:43:11.925Z,462.00
2023-05-09T12:44:12.949Z,486.00
2023-05-09T12:45:11.945Z,482.00
2023-05-09T12:46:12.965Z,482.00
2023-05-09T12:47:12.045Z,480.00
2023-05-09T12:48:12.953Z,488.00
2023-05-09T12:49:12.899Z,490.00
2023-05-09T12:50:11.883Z,532.00
2023-05-09T12:51:11.869Z,482.00
2023-05-09T12:52:11.866Z,490.00
2023-05-09T12:53:12.852Z,487.00
2023-05-09T12:54:12.838Z,479.00
2023-05-09T12:55:13.075Z,472.00
2023-05-09T12:56:11.835Z,478.00
2023-05-09T12:57:11.829Z,465.00
2023-05-09T12:58:11.833Z,453.00
2023-05-09T12:59:11.820Z,457.00
2023-05-09T13:00:12.915Z,457.00
2023-05-09T13:01:12.828Z,454.00
2023-05-09T13:02:12.802Z,447.00
2023-05-09T13:03:12.968Z,442.00
2023-05-09T13:04:12.731Z,434.00
2023-05-09T13:05:13.037Z,440.00
2023-05-09T13:06:11.781Z,450.00
2023-05-09T13:07:12.758Z,457.00
2023-05-09T13:08:12.739Z,436.00
2023-05-09T13:09:12.746Z,438.00
2023-05-09T13:10:12.651Z,437.00
2023-05-09T13:11:16.270Z,437.00
2023-05-09T13:12:12.731Z,440.00
2023-05-09T13:13:11.812Z,441.00
2023-05-09T13:14:11.715Z,430.00
2023-05-09T13:15:12.986Z,429.00
2023-05-09T13:16:13.518Z,427.00
2023-05-09T13:17:11.726Z,431.00
2023-05-09T13:18:11.705Z,436.00
2023-05-09T13:19:12.890Z,437.00
2023-05-09T13:20:12.956Z,434.00
2023-05-09T13:21:11.669Z,438.00
2023-05-09T13:22:12.714Z,442.00
2023-05-09T13:23:11.638Z,442.00
2023-05-09T13:24:11.639Z,438.00
2023-05-09T13:25:12.632Z,440.00
2023-05-09T13:26:12.633Z,443.00
2023-05-09T13:27:11.620Z,441.00
2023-05-09T13:28:12.599Z,442.00
2023-05-09T13:29:12.590Z,470.00
2023-05-09T13:30:12.921Z,426.00
2023-05-09T13:31:11.700Z,422.00
2023-05-09T13:32:11.572Z,442.00
2023-05-09T13:33:24.526Z,440.00
2023-05-09T13:34:12.563Z,434.00
2023-05-09T13:35:12.687Z,440.00
2023-05-09T13:36:12.568Z,438.00
2023-05-09T13:37:11.550Z,436.00
2023-05-09T13:38:11.525Z,438.00
2023-05-09T13:39:12.520Z,442.00
2023-05-09T13:40:12.653Z,444.00
2023-05-09T13:41:11.505Z,450.00
2023-05-09T13:42:12.518Z,462.00
2023-05-09T13:43:11.542Z,477.00
2023-05-09T13:44:11.486Z,484.00
2023-05-09T13:45:12.582Z,487.00
2023-05-09T13:46:12.487Z,492.00
2023-05-09T13:47:12.464Z,532.00
2023-05-09T13:48:12.519Z,526.00
2023-05-09T13:49:11.463Z,515.00
2023-05-09T13:50:12.866Z,524.00
2023-05-09T13:51:11.577Z,525.00
2023-05-09T13:52:11.425Z,523.00
2023-05-09T13:53:11.428Z,543.00
2023-05-09T13:54:12.429Z,532.00
2023-05-09T13:55:12.418Z,531.00
2023-05-09T13:56:12.409Z,545.00
2023-05-09T13:57:11.404Z,538.00
2023-05-09T13:58:12.382Z,534.00
2023-05-09T13:59:11.378Z,528.00
2023-05-09T14:00:13.820Z,522.00
2023-05-09T14:01:12.459Z,519.00
2023-05-09T14:02:12.365Z,507.00
2023-05-09T14:03:12.356Z,480.00
2023-05-09T14:04:11.359Z,472.00
2023-05-09T14:05:12.336Z,473.00
2023-05-09T14:06:13.417Z,478.00
2023-05-09T14:07:11.455Z,480.00
2023-05-09T14:08:12.362Z,457.00
2023-05-09T14:09:12.298Z,461.00
2023-05-09T14:10:12.544Z,467.00
2023-05-09T14:11:12.294Z,460.00
2023-05-09T14:12:12.467Z,479.00
2023-05-09T14:13:11.405Z,460.00
2023-05-09T14:14:11.316Z,470.00
2023-05-09T14:15:11.364Z,460.00
2023-05-09T14:16:12.325Z,459.00
2023-05-09T14:17:12.271Z,465.00
2023-05-09T14:18:15.955Z,473.00
2023-05-09T14:19:12.228Z,492.00
2023-05-09T14:20:12.225Z,482.00
2023-05-09T14:21:12.208Z,466.00
2023-05-09T14:22:11.202Z,456.00
2023-05-09T14:23:12.332Z,452.00
2023-05-09T14:24:12.963Z,447.00
2023-05-09T14:25:11.198Z,456.00
2023-05-09T14:26:12.173Z,452.00
2023-05-09T14:27:12.176Z,456.00
2023-05-09T14:28:12.160Z,457.00
2023-05-09T14:29:12.149Z,461.00
2023-05-09T14:30:12.143Z,455.00
2023-05-09T14:31:12.176Z,438.00
2023-05-09T14:32:11.134Z,429.00
2023-05-09T14:33:12.117Z,428.00
2023-05-09T14:34:12.113Z,434.00
2023-05-09T14:35:12.177Z,435.00
2023-05-09T14:36:11.149Z,435.00
2023-05-09T14:37:12.088Z,435.00
2023-05-09T14:38:12.093Z,436.00
2023-05-09T14:39:11.244Z,436.00
2023-05-09T14:40:11.069Z,435.00
2023-05-09T14:41:12.057Z,406.00
2023-05-09T14:42:12.054Z,409.00
2023-05-09T14:43:11.177Z,397.00
2023-05-09T14:44:12.038Z,406.00
2023-05-09T14:45:12.103Z,393.00
2023-05-09T14:46:12.035Z,396.00
2023-05-09T14:47:11.073Z,412.00
2023-05-09T14:48:11.883Z,403.00
2023-05-09T14:49:11.034Z,401.00
2023-05-09T14:50:10.991Z,403.00
2023-05-09T14:51:12.004Z,407.00
2023-05-09T14:52:10.996Z,405.00
2023-05-09T14:53:11.983Z,401.00
2023-05-09T14:54:12.024Z,396.00
2023-05-09T14:55:12.082Z,396.00
2023-05-09T14:56:11.964Z,397.00
2023-05-09T14:57:10.973Z,395.00
2023-05-09T14:58:11.953Z,397.00
2023-05-09T14:59:11.947Z,397.00
2023-05-09T15:00:20.543Z,396.00
2023-05-09T15:01:11.970Z,395.00
2023-05-09T15:02:11.929Z,396.00
2023-05-09T15:03:11.046Z,398.00
2023-05-09T15:04:10.926Z,399.00
2023-05-09T15:05:11.952Z,399.00
2023-05-09T15:06:10.886Z,398.00
2023-05-09T15:07:11.892Z,401.00
2023-05-09T15:08:11.876Z,404.00
2023-05-09T15:09:11.879Z,405.00
2023-05-09T15:10:10.868Z,394.00
2023-05-09T15:11:11.978Z,393.00
2023-05-09T15:12:11.851Z,399.00
2023-05-09T15:13:11.869Z,392.00
2023-05-09T15:14:10.841Z,389.00
2023-05-09T15:15:10.817Z,391.00
2023-05-09T15:16:11.854Z,395.00
2023-05-09T15:17:11.851Z,386.00
2023-05-09T15:18:11.806Z,412.00
2023-05-09T15:19:11.805Z,413.00
2023-05-09T15:20:10.783Z,385.00
2023-05-09T15:21:11.772Z,404.00
2023-05-09T15:22:10.766Z,412.00
2023-05-09T15:23:11.809Z,387.00
2023-05-09T15:24:11.755Z,383.00
2023-05-09T15:25:10.754Z,383.00
2023-05-09T15:26:10.735Z,384.00
2023-05-09T15:27:11.862Z,387.00
2023-05-09T15:28:11.727Z,390.00
2023-05-09T15:29:11.726Z,408.00
